Terminal Aerodrome Forecast
Issued by NWS

Home | Current Version | Previous Version | Text Only | Print | Product List | Glossary On
Versions: 1 2 3 4 5 6 7 8 9 10 11 12 13 14 15 16
000
FTUS42 KFFC 301700 RRA
TAFRYY
TAF
KRYY 301741Z 3018/3118 17007KT P6SM VCSH SCT035 OVC060
      TEMPO 3020/3024 6SM -TSRA BR BKN025CB
     FM310300 00000KT P6SM FEW035 BKN100
     FM311000 00000KT 4SM BR SCT100
     FM311400 23005KT P6SM SCT025=

USA.gov is the U.S. government's official web portal to all federal, state and local government web resources and services.